createdAt,value
2022-08-26T00:00:41.244Z,13.70
2022-08-26T00:03:26.506Z,25.42
2022-08-26T00:06:13.791Z,23.63
2022-08-26T00:08:59.480Z,25.25
2022-08-26T00:11:45.603Z,26.92
2022-08-26T00:14:31.664Z,19.42
2022-08-26T00:17:17.179Z,24.67
2022-08-26T00:20:04.611Z,22.67
2022-08-26T00:22:49.986Z,22.42
2022-08-26T00:25:37.499Z,30.08
2022-08-26T00:28:27.962Z,23.95
2022-08-26T00:31:13.651Z,23.38
2022-08-26T00:33:59.391Z,19.55
2022-08-26T00:36:44.765Z,21.40
2022-08-26T00:39:30.447Z,26.38
2022-08-26T00:42:15.527Z,19.02
2022-08-26T00:45:01.743Z,23.42
2022-08-26T00:47:54.095Z,19.83
2022-08-26T00:50:43.148Z,18.70
2022-08-26T00:53:31.926Z,21.30
2022-08-26T00:56:47.709Z,22.77
2022-08-26T00:59:34.015Z,27.77
2022-08-26T01:02:21.236Z,27.48
2022-08-26T01:05:08.311Z,22.20
2022-08-26T01:07:53.799Z,23.63
2022-08-26T01:10:39.095Z,26.88
2022-08-26T01:13:25.154Z,25.08
2022-08-26T01:16:14.316Z,27.50
2022-08-26T01:19:09.851Z,20.70
2022-08-26T01:22:05.098Z,19.08
2022-08-26T01:24:50.916Z,23.00
2022-08-26T01:27:36.769Z,19.27
2022-08-26T01:30:22.085Z,23.23
2022-08-26T01:33:12.837Z,20.75
2022-08-26T01:35:58.617Z,21.20
2022-08-26T01:38:45.085Z,19.50
2022-08-26T01:41:32.057Z,20.02
2022-08-26T01:44:21.226Z,19.70
2022-08-26T01:47:09.350Z,26.42
2022-08-26T01:49:56.723Z,22.63
2022-08-26T01:52:44.971Z,22.00
2022-08-26T01:55:38.791Z,20.90
2022-08-26T01:58:32.651Z,18.50
2022-08-26T02:01:19.001Z,21.15
2022-08-26T02:04:15.651Z,20.88
2022-08-26T02:07:05.164Z,24.15
2022-08-26T02:09:51.284Z,26.30
2022-08-26T02:12:37.198Z,27.98
2022-08-26T02:15:22.879Z,18.90
2022-08-26T02:18:09.647Z,16.27
2022-08-26T02:20:59.478Z,17.08
2022-08-26T02:23:45.059Z,18.58
2022-08-26T02:26:30.753Z,24.48
2022-08-26T02:29:20.095Z,24.25
2022-08-26T02:32:10.692Z,24.67
2022-08-26T02:34:56.578Z,25.80
2022-08-26T02:37:42.522Z,21.17
2022-08-26T02:40:34.737Z,22.70
2022-08-26T02:43:31.361Z,23.05
2022-08-26T02:46:21.495Z,25.58
2022-08-26T02:49:13.549Z,18.48
2022-08-26T02:52:00.857Z,19.92
2022-08-26T02:54:47.244Z,20.85
2022-08-26T02:57:34.833Z,18.35
2022-08-26T03:00:20.510Z,19.55
2022-08-26T03:03:06.269Z,19.23
2022-08-26T03:05:52.877Z,23.55
2022-08-26T03:08:39.715Z,18.90
2022-08-26T03:11:27.613Z,23.00
2022-08-26T03:14:16.170Z,26.55
2022-08-26T03:17:01.401Z,19.92
2022-08-26T03:19:48.378Z,25.38
2022-08-26T03:22:38.628Z,25.50
2022-08-26T03:25:25.649Z,18.80
2022-08-26T03:28:10.604Z,25.08
2022-08-26T03:30:56.973Z,24.55
2022-08-26T03:33:42.088Z,22.83
2022-08-26T03:36:27.599Z,21.05
2022-08-26T03:39:13.756Z,32.47
2022-08-26T03:41:59.318Z,17.67
2022-08-26T03:44:44.446Z,22.15
2022-08-26T03:47:31.394Z,19.75
2022-08-26T03:50:22.860Z,14.30
2022-08-26T03:53:12.970Z,15.95
2022-08-26T03:55:58.796Z,19.67
2022-08-26T03:58:44.625Z,17.05
2022-08-26T04:01:31.950Z,23.52
2022-08-26T04:04:18.145Z,23.95
2022-08-26T04:07:08.216Z,22.75
2022-08-26T04:09:58.081Z,21.83
2022-08-26T04:12:43.949Z,19.58
2022-08-26T04:15:29.129Z,21.55
2022-08-26T04:18:15.519Z,23.30
2022-08-26T04:21:01.908Z,27.20
2022-08-26T04:23:48.128Z,23.10
2022-08-26T04:26:39.395Z,18.48
2022-08-26T04:29:27.561Z,23.25
2022-08-26T04:32:13.039Z,19.20
2022-08-26T04:34:58.314Z,19.98
2022-08-26T04:37:46.160Z,23.95
2022-08-26T04:40:31.641Z,19.98
2022-08-26T04:43:16.940Z,20.95
2022-08-26T04:46:04.229Z,22.33
2022-08-26T04:48:51.885Z,22.50
2022-08-26T04:51:38.271Z,18.23
2022-08-26T04:54:23.872Z,19.58
2022-08-26T04:57:10.648Z,18.02
2022-08-26T04:59:56.031Z,26.00
2022-08-26T05:02:41.340Z,24.35
2022-08-26T05:05:28.286Z,22.73
2022-08-26T05:08:15.441Z,15.23
2022-08-26T05:11:05.237Z,22.23
2022-08-26T05:13:51.065Z,21.35
2022-08-26T05:16:37.596Z,18.38
2022-08-26T05:19:25.431Z,16.70
2022-08-26T05:22:14.079Z,20.38
2022-08-26T05:25:00.612Z,20.90
2022-08-26T05:27:45.819Z,24.55
2022-08-26T05:30:31.468Z,27.33
2022-08-26T05:33:17.941Z,19.48
2022-08-26T05:36:08.097Z,24.45
2022-08-26T05:38:55.509Z,21.15
2022-08-26T05:41:42.838Z,21.42
2022-08-26T05:44:30.375Z,29.50
2022-08-26T05:47:35.828Z,28.00
2022-08-26T05:50:25.518Z,25.75
2022-08-26T05:53:12.815Z,20.40
2022-08-26T05:55:58.837Z,22.00
2022-08-26T05:58:44.901Z,31.48
2022-08-26T06:01:35.832Z,29.27
2022-08-26T06:04:21.445Z,25.17
2022-08-26T06:07:07.392Z,25.35
2022-08-26T06:10:21.350Z,26.48
2022-08-26T06:13:09.288Z,27.05
2022-08-26T06:15:59.147Z,22.77
2022-08-26T06:18:46.648Z,24.10
2022-08-26T06:21:34.413Z,28.23
2022-08-26T06:24:38.423Z,26.35
2022-08-26T06:27:23.830Z,27.75
2022-08-26T06:30:10.330Z,27.35
2022-08-26T06:32:56.039Z,24.55
2022-08-26T06:35:42.300Z,26.45
2022-08-26T06:38:27.659Z,29.08
2022-08-26T06:41:13.524Z,31.17
2022-08-26T06:44:00.553Z,33.53
2022-08-26T06:46:46.011Z,34.67
2022-08-26T06:49:37.077Z,20.40
2022-08-26T06:52:24.353Z,27.00
2022-08-26T06:55:09.929Z,24.50
2022-08-26T06:57:56.227Z,22.90
2022-08-26T07:00:41.681Z,28.40
2022-08-26T07:03:32.689Z,26.60
2022-08-26T07:09:11.215Z,28.63
2022-08-26T07:11:57.168Z,27.90
2022-08-26T07:14:47.309Z,21.50
2022-08-26T07:17:33.159Z,33.20
2022-08-26T07:20:19.847Z,29.65
2022-08-26T07:23:05.233Z,21.55
2022-08-26T07:25:55.383Z,27.90
2022-08-26T07:28:41.264Z,23.65
2022-08-26T07:31:29.489Z,29.45
2022-08-26T07:34:16.289Z,27.52
2022-08-26T07:37:03.440Z,26.65
2022-08-26T07:39:48.884Z,34.47
2022-08-26T07:42:34.346Z,22.95
2022-08-26T07:45:20.306Z,29.63
2022-08-26T07:48:06.592Z,30.05
2022-08-26T07:50:53.616Z,25.30
2022-08-26T07:53:39.824Z,22.02
2022-08-26T07:56:25.889Z,27.25
2022-08-26T07:59:13.726Z,22.45
2022-08-26T08:02:00.494Z,28.25
2022-08-26T08:04:46.102Z,26.67
2022-08-26T08:07:44.425Z,25.13
2022-08-26T08:10:32.525Z,23.80
2022-08-26T08:13:17.861Z,20.98
2022-08-26T08:16:04.981Z,23.27
2022-08-26T08:18:50.288Z,25.55
2022-08-26T08:21:35.566Z,26.85
2022-08-26T08:24:21.904Z,21.95
2022-08-26T08:27:07.049Z,31.05
2022-08-26T08:29:55.016Z,20.58
2022-08-26T08:32:40.575Z,25.77
2022-08-26T08:35:26.405Z,24.17
2022-08-26T08:38:11.440Z,22.38
2022-08-26T08:40:57.107Z,23.50
2022-08-26T08:43:44.814Z,19.95
2022-08-26T08:46:31.285Z,24.92
2022-08-26T08:49:16.926Z,21.45
2022-08-26T08:52:11.792Z,22.13
2022-08-26T08:54:57.396Z,27.05
2022-08-26T08:58:02.185Z,27.23
2022-08-26T09:01:00.307Z,20.58
2022-08-26T09:04:13.464Z,20.00
2022-08-26T09:07:04.453Z,18.65
2022-08-26T09:09:59.363Z,21.63
2022-08-26T09:12:46.129Z,17.90
2022-08-26T09:15:49.239Z,16.90
2022-08-26T09:18:45.992Z,26.77
2022-08-26T09:21:32.224Z,23.25
2022-08-26T09:24:18.090Z,16.88
2022-08-26T09:27:03.341Z,14.38
2022-08-26T09:29:51.241Z,17.25
2022-08-26T09:32:37.953Z,19.60
2022-08-26T09:35:28.334Z,17.60
2022-08-26T09:38:23.224Z,17.52
2022-08-26T09:41:24.705Z,25.50
2022-08-26T09:44:20.229Z,15.93
2022-08-26T09:47:08.716Z,15.40
2022-08-26T09:50:09.678Z,15.50
2022-08-26T09:53:21.081Z,16.75
2022-08-26T09:56:29.540Z,19.95
2022-08-26T09:59:29.861Z,16.20
2022-08-26T10:02:35.693Z,18.17
2022-08-26T10:05:30.537Z,14.82
2022-08-26T10:08:24.271Z,15.90
2022-08-26T10:11:19.489Z,17.50
2022-08-26T10:14:14.030Z,13.48
2022-08-26T10:17:09.073Z,13.75
2022-08-26T10:20:23.457Z,13.98
2022-08-26T10:23:14.833Z,20.90
2022-08-26T10:26:09.684Z,13.63
2022-08-26T10:29:06.825Z,16.77
2022-08-26T10:32:02.672Z,12.40
2022-08-26T10:34:49.389Z,22.33
2022-08-26T10:37:57.891Z,13.35
2022-08-26T10:40:51.641Z,16.02
2022-08-26T10:43:58.749Z,17.45
2022-08-26T10:46:53.501Z,12.93
2022-08-26T10:49:40.281Z,18.40
2022-08-26T10:52:34.374Z,19.60
2022-08-26T10:55:34.947Z,15.05
2022-08-26T10:58:28.309Z,13.30
2022-08-26T11:01:43.321Z,18.58
2022-08-26T11:04:40.852Z,17.42
2022-08-26T11:07:32.556Z,15.65
2022-08-26T11:10:21.031Z,21.25
2022-08-26T11:13:07.214Z,17.05
2022-08-26T11:15:52.767Z,24.13
2022-08-26T11:18:41.836Z,19.40
2022-08-26T11:22:05.049Z,17.25
2022-08-26T11:24:56.367Z,16.38
2022-08-26T11:27:41.613Z,14.35
2022-08-26T11:30:37.609Z,24.13
2022-08-26T11:33:48.161Z,17.98
2022-08-26T11:36:45.544Z,15.95
2022-08-26T11:39:54.012Z,11.15
2022-08-26T11:42:51.589Z,19.63
2022-08-26T11:45:59.564Z,16.45
2022-08-26T11:48:45.076Z,21.30
2022-08-26T11:51:31.534Z,11.70
2022-08-26T11:54:30.753Z,13.80
2022-08-26T11:57:20.596Z,15.60
2022-08-26T12:00:13.592Z,14.60
2022-08-26T12:03:04.846Z,12.07
2022-08-26T12:05:52.319Z,12.75
2022-08-26T12:08:43.706Z,10.10
2022-08-26T12:11:34.217Z,11.57
2022-08-26T12:14:27.823Z,8.60
2022-08-26T12:17:27.557Z,9.88
2022-08-26T12:20:46.208Z,8.10
2022-08-26T12:23:45.336Z,11.57
2022-08-26T12:26:33.739Z,13.45
2022-08-26T12:29:28.344Z,13.30
2022-08-26T12:32:18.263Z,11.80
2022-08-26T12:37:55.764Z,11.77
2022-08-26T12:40:43.830Z,15.38
2022-08-26T12:43:45.888Z,12.63
2022-08-26T12:46:31.377Z,13.63
2022-08-26T12:49:18.681Z,11.40
2022-08-26T12:52:06.127Z,12.77
2022-08-26T12:55:00.276Z,13.80
2022-08-26T12:57:45.661Z,18.73
2022-08-26T13:00:37.502Z,13.80
2022-08-26T13:03:35.172Z,16.25
2022-08-26T13:06:23.578Z,12.07
2022-08-26T13:09:08.776Z,17.38
2022-08-26T13:11:54.112Z,13.18
2022-08-26T13:14:40.400Z,9.90
2022-08-26T13:17:27.709Z,15.45
2022-08-26T13:20:12.905Z,15.38
2022-08-26T13:22:59.470Z,15.07
2022-08-26T13:25:44.958Z,12.13
2022-08-26T13:28:30.152Z,16.77
2022-08-26T13:31:16.483Z,9.93
2022-08-26T13:34:04.235Z,12.25
2022-08-26T13:36:51.461Z,15.25
2022-08-26T13:39:38.011Z,9.90
2022-08-26T13:42:23.025Z,14.38
2022-08-26T13:45:10.555Z,14.75
2022-08-26T13:47:55.815Z,10.45
2022-08-26T13:50:41.272Z,14.25
2022-08-26T13:53:26.809Z,18.13
2022-08-26T13:56:12.145Z,19.13
2022-08-26T13:58:59.633Z,12.77
2022-08-26T14:01:44.923Z,14.55
2022-08-26T14:04:30.128Z,13.05
2022-08-26T14:07:15.372Z,15.82
2022-08-26T14:10:01.473Z,10.10
2022-08-26T14:12:46.775Z,10.43
2022-08-26T14:15:35.408Z,12.30
2022-08-26T14:18:26.328Z,11.48
2022-08-26T14:21:14.320Z,15.85
2022-08-26T14:24:01.043Z,11.57
2022-08-26T14:26:48.425Z,15.10
2022-08-26T14:29:33.439Z,13.07
2022-08-26T14:32:24.849Z,14.43
2022-08-26T14:35:16.477Z,12.48
2022-08-26T14:40:47.029Z,8.55
2022-08-26T14:43:32.557Z,13.43
2022-08-26T14:46:18.395Z,11.57
2022-08-26T14:49:07.285Z,14.98
2022-08-26T14:51:55.428Z,14.80
2022-08-26T14:54:40.511Z,13.20
2022-08-26T14:57:25.706Z,14.18
2022-08-26T15:00:11.986Z,14.30
2022-08-26T15:02:58.248Z,15.43
2022-08-26T15:05:48.166Z,12.45
2022-08-26T15:08:36.493Z,11.90
2022-08-26T15:11:22.482Z,11.63
2022-08-26T15:14:08.720Z,15.00
2022-08-26T15:17:04.599Z,10.93
2022-08-26T15:19:49.925Z,15.85
2022-08-26T15:22:36.240Z,15.75
2022-08-26T15:25:21.751Z,9.60
2022-08-26T15:28:07.026Z,12.57
2022-08-26T15:30:52.375Z,10.13
2022-08-26T15:33:38.433Z,16.15
2022-08-26T15:36:23.752Z,14.55
2022-08-26T15:39:09.194Z,14.02
2022-08-26T15:41:56.137Z,17.05
2022-08-26T15:44:45.377Z,13.48
2022-08-26T15:47:30.993Z,12.30
2022-08-26T15:50:20.899Z,16.08
2022-08-26T15:53:06.294Z,13.27
2022-08-26T15:55:55.169Z,14.77
2022-08-26T15:58:41.974Z,13.75
2022-08-26T16:01:31.641Z,19.13
2022-08-26T16:04:18.489Z,11.93
2022-08-26T16:07:04.431Z,14.40
2022-08-26T16:09:54.008Z,17.02
2022-08-26T16:12:40.363Z,16.10
2022-08-26T16:15:25.790Z,13.23
2022-08-26T16:18:11.124Z,12.75
2022-08-26T16:21:13.218Z,12.40
2022-08-26T16:23:59.372Z,15.07
2022-08-26T16:26:45.253Z,14.30
2022-08-26T16:29:31.881Z,11.38
2022-08-26T16:32:17.000Z,12.50
2022-08-26T16:35:02.516Z,13.75
2022-08-26T16:37:48.083Z,8.95
2022-08-26T16:40:33.717Z,10.38
2022-08-26T16:43:19.384Z,7.65
2022-08-26T16:46:08.051Z,10.65
2022-08-26T16:48:55.908Z,13.13
2022-08-26T16:51:44.625Z,10.30
2022-08-26T16:54:30.356Z,10.30
2022-08-26T16:57:16.017Z,4.90
2022-08-26T17:00:05.311Z,5.28
2022-08-26T17:02:51.588Z,9.38
2022-08-26T17:05:37.647Z,6.20
2022-08-26T17:08:27.375Z,10.45
2022-08-26T17:11:14.537Z,4.82
2022-08-26T17:13:59.696Z,5.20
2022-08-26T17:16:45.661Z,10.13
2022-08-26T17:19:34.469Z,5.50
2022-08-26T17:22:34.667Z,7.40
2022-08-26T17:25:25.092Z,3.92
2022-08-26T17:28:13.541Z,6.40
2022-08-26T17:30:59.608Z,6.35
2022-08-26T17:33:47.769Z,6.30
2022-08-26T17:36:35.556Z,8.88
2022-08-26T17:39:21.094Z,16.30
2022-08-26T17:42:06.856Z,15.23
2022-08-26T17:44:51.943Z,10.25
2022-08-26T17:47:38.296Z,11.55
2022-08-26T17:50:23.656Z,11.20
2022-08-26T17:53:18.898Z,8.05
2022-08-26T17:56:10.640Z,8.13
2022-08-26T17:58:57.839Z,9.98
2022-08-26T18:01:47.757Z,9.95
2022-08-26T18:04:33.166Z,11.35
2022-08-26T18:07:18.863Z,10.93
2022-08-26T18:10:05.153Z,9.52
2022-08-26T18:12:51.327Z,10.43
2022-08-26T18:15:41.255Z,9.35
2022-08-26T18:18:27.332Z,11.35
2022-08-26T18:21:19.644Z,12.35
2022-08-26T18:24:05.663Z,10.73
2022-08-26T18:26:51.041Z,10.98
2022-08-26T18:29:36.473Z,13.02
2022-08-26T18:32:30.644Z,12.95
2022-08-26T18:35:16.637Z,10.50
2022-08-26T18:38:10.838Z,13.27
2022-08-26T18:40:57.232Z,9.30
2022-08-26T18:43:43.221Z,12.20
2022-08-26T18:46:28.894Z,8.38
2022-08-26T18:49:15.874Z,7.63
2022-08-26T18:52:01.088Z,9.25
2022-08-26T18:54:46.687Z,9.88
2022-08-26T18:57:31.772Z,11.35
2022-08-26T19:00:17.635Z,9.20
2022-08-26T19:03:02.906Z,13.15
2022-08-26T19:05:49.275Z,13.15
2022-08-26T19:08:34.730Z,15.15
2022-08-26T19:11:32.231Z,7.85
2022-08-26T19:17:07.754Z,10.65
2022-08-26T19:19:53.879Z,9.18
2022-08-26T19:22:39.373Z,9.90
2022-08-26T19:25:24.795Z,9.02
2022-08-26T19:28:10.585Z,8.07
2022-08-26T19:30:55.760Z,9.95
2022-08-26T19:33:43.467Z,16.23
2022-08-26T19:36:29.187Z,13.88
2022-08-26T19:39:14.251Z,8.82
2022-08-26T19:42:00.376Z,10.43
2022-08-26T19:45:03.891Z,12.15
2022-08-26T19:47:49.810Z,12.32
2022-08-26T19:50:35.165Z,10.35
2022-08-26T19:53:20.231Z,8.80
2022-08-26T19:56:05.659Z,9.65
2022-08-26T19:58:51.459Z,13.95
2022-08-26T20:01:36.526Z,10.65
2022-08-26T20:04:21.953Z,8.57
2022-08-26T20:07:09.044Z,10.63
2022-08-26T20:09:54.103Z,10.55
2022-08-26T20:12:41.678Z,14.88
2022-08-26T20:15:28.514Z,10.18
2022-08-26T20:18:33.472Z,12.73
2022-08-26T20:21:27.920Z,10.77
2022-08-26T20:24:16.436Z,12.90
2022-08-26T20:27:07.277Z,9.77
2022-08-26T20:29:57.505Z,15.45
2022-08-26T20:32:43.330Z,10.88
2022-08-26T20:35:28.394Z,10.05
2022-08-26T20:38:14.651Z,10.98
2022-08-26T20:41:01.248Z,13.88
2022-08-26T20:43:47.081Z,10.80
2022-08-26T20:46:34.606Z,10.32
2022-08-26T20:49:19.871Z,9.00
2022-08-26T20:52:06.014Z,17.73
2022-08-26T20:54:51.212Z,12.68
2022-08-26T20:57:37.279Z,13.73
2022-08-26T21:00:22.999Z,10.82
2022-08-26T21:03:13.222Z,8.82
2022-08-26T21:05:58.476Z,10.98
2022-08-26T21:08:43.554Z,14.13
2022-08-26T21:11:30.525Z,13.18
2022-08-26T21:14:17.092Z,10.02
2022-08-26T21:17:03.829Z,9.32
2022-08-26T21:19:48.929Z,11.38
2022-08-26T21:22:34.349Z,9.38
2022-08-26T21:25:19.880Z,11.13
2022-08-26T21:28:05.694Z,7.95
2022-08-26T21:30:51.310Z,10.80
2022-08-26T21:33:37.660Z,7.53
2022-08-26T21:36:23.005Z,7.65
2022-08-26T21:39:11.807Z,10.13
2022-08-26T21:41:57.880Z,8.48
2022-08-26T21:44:44.688Z,12.75
2022-08-26T21:47:34.178Z,9.77
2022-08-26T21:50:19.675Z,8.23
2022-08-26T21:53:04.888Z,10.35
2022-08-26T21:55:50.243Z,12.98
2022-08-26T21:58:36.165Z,9.05
2022-08-26T22:01:25.355Z,9.32
2022-08-26T22:04:10.849Z,19.85
2022-08-26T22:06:57.601Z,12.45
2022-08-26T22:09:42.620Z,13.50
2022-08-26T22:12:30.073Z,13.63
2022-08-26T22:15:15.757Z,13.93
2022-08-26T22:18:03.476Z,9.63
2022-08-26T22:20:48.971Z,10.48
2022-08-26T22:23:35.535Z,16.75
2022-08-26T22:26:25.829Z,9.32
2022-08-26T22:29:11.420Z,14.00
2022-08-26T22:31:57.217Z,11.95
2022-08-26T22:34:42.431Z,12.68
2022-08-26T22:37:27.736Z,13.48
2022-08-26T22:40:13.913Z,11.90
2022-08-26T22:43:00.254Z,15.02
2022-08-26T22:45:47.800Z,15.45
2022-08-26T22:48:33.196Z,12.05
2022-08-26T22:51:18.583Z,14.27
2022-08-26T22:54:04.639Z,18.00
2022-08-26T22:56:50.040Z,13.88
2022-08-26T22:59:35.381Z,12.43
2022-08-26T23:02:20.675Z,13.00
2022-08-26T23:05:07.203Z,13.50
2022-08-26T23:07:53.895Z,12.02
2022-08-26T23:10:41.966Z,11.48
2022-08-26T23:13:27.565Z,13.30
2022-08-26T23:16:13.494Z,12.07
2022-08-26T23:18:58.731Z,12.05
2022-08-26T23:21:44.497Z,13.70
2022-08-26T23:24:29.471Z,13.02
2022-08-26T23:27:14.811Z,17.00
2022-08-26T23:30:00.489Z,12.80
2022-08-26T23:32:45.873Z,12.60
2022-08-26T23:35:31.227Z,14.27
2022-08-26T23:38:17.179Z,12.90
2022-08-26T23:41:02.522Z,15.55
2022-08-26T23:43:47.871Z,12.38
2022-08-26T23:46:34.525Z,10.55
2022-08-26T23:49:19.614Z,12.00
2022-08-26T23:52:24.702Z,13.25
2022-08-26T23:55:10.688Z,14.43
2022-08-26T23:57:55.876Z,12.52
